Terminal Aerodrome Forecast
Issued by NWS St Louis, MO

Home | Current Version | Previous Version | Text Only | Print | Product List | Glossary On
Versions: 1 2 3 4 5 6 7 8 9 10 11 12 13 14 15 16 17 18 19 20 21
606
FTUS43 KLSX 271204 AAA
TAFCOU
TAF AMD
KCOU 271204Z 2712/2812 13005KT P6SM FEW250
     FM271700 13006KT P6SM FEW050
     FM280000 16006KT P6SM FEW250=

USA.gov is the U.S. government's official web portal to all federal, state and local government web resources and services.